sensor_id;sensor_type;location;lat;lon;timestamp;temperature;humidity
240;DHT22;104;53.590;10.004;2023-03-01T00:08:15;1.20;89.10
240;DHT22;104;53.590;10.004;2023-03-01T00:10:44;1.20;89.10
240;DHT22;104;53.590;10.004;2023-03-01T00:13:11;1.20;88.80
240;DHT22;104;53.590;10.004;2023-03-01T00:15:38;1.10;89.20
240;DHT22;104;53.590;10.004;2023-03-01T00:18:07;1.20;89.30
240;DHT22;104;53.590;10.004;2023-03-01T00:20:34;1.10;89.30
240;DHT22;104;53.590;10.004;2023-03-01T00:23:01;1.00;89.40
240;DHT22;104;53.590;10.004;2023-03-01T00:28:09;0.80;90.10
240;DHT22;104;53.590;10.004;2023-03-01T00:30:36;0.70;90.40
240;DHT22;104;53.590;10.004;2023-03-01T00:33:03;0.70;90.80
240;DHT22;104;53.590;10.004;2023-03-01T00:35:34;0.70;91.10
240;DHT22;104;53.590;10.004;2023-03-01T00:38:01;0.70;91.10
240;DHT22;104;53.590;10.004;2023-03-01T00:40:31;0.70;91.40
240;DHT22;104;53.590;10.004;2023-03-01T00:42:58;0.60;91.80
240;DHT22;104;53.590;10.004;2023-03-01T00:45:27;0.70;92.00
240;DHT22;104;53.590;10.004;2023-03-01T00:47:56;0.70;91.90
240;DHT22;104;53.590;10.004;2023-03-01T00:50:24;0.80;91.80
240;DHT22;104;53.590;10.004;2023-03-01T00:52:53;0.70;91.60
240;DHT22;104;53.590;10.004;2023-03-01T00:55:20;0.70;91.60
240;DHT22;104;53.590;10.004;2023-03-01T00:57:47;0.70;91.60
240;DHT22;104;53.590;10.004;2023-03-01T01:02:43;0.70;91.30
240;DHT22;104;53.590;10.004;2023-03-01T01:05:11;0.70;91.50
240;DHT22;104;53.590;10.004;2023-03-01T01:07:38;0.70;91.80
240;DHT22;104;53.590;10.004;2023-03-01T01:10:06;0.80;91.50
240;DHT22;104;53.590;10.004;2023-03-01T01:12:33;0.70;91.50
240;DHT22;104;53.590;10.004;2023-03-01T01:15:00;0.70;91.50
240;DHT22;104;53.590;10.004;2023-03-01T01:17:27;0.70;91.50
240;DHT22;104;53.590;10.004;2023-03-01T01:19:56;0.60;91.60
240;DHT22;104;53.590;10.004;2023-03-01T01:22:22;0.60;91.80
240;DHT22;104;53.590;10.004;2023-03-01T01:29:44;0.50;92.20
240;DHT22;104;53.590;10.004;2023-03-01T01:34:38;0.50;91.90
240;DHT22;104;53.590;10.004;2023-03-01T01:42:02;0.40;91.60
240;DHT22;104;53.590;10.004;2023-03-01T01:44:29;0.40;91.70
240;DHT22;104;53.590;10.004;2023-03-01T01:46:58;0.40;91.70
240;DHT22;104;53.590;10.004;2023-03-01T01:52:02;0.30;92.00
240;DHT22;104;53.590;10.004;2023-03-01T01:54:39;0.30;92.20
240;DHT22;104;53.590;10.004;2023-03-01T01:57:10;0.30;92.30
240;DHT22;104;53.590;10.004;2023-03-01T01:59:39;0.30;92.20
240;DHT22;104;53.590;10.004;2023-03-01T02:04:35;0.20;91.90
240;DHT22;104;53.590;10.004;2023-03-01T02:09:33;0.20;92.30
240;DHT22;104;53.590;10.004;2023-03-01T02:12:01;0.10;92.30
240;DHT22;104;53.590;10.004;2023-03-01T02:19:34;0.00;92.60
240;DHT22;104;53.590;10.004;2023-03-01T02:32:06;-0.10;92.30
240;DHT22;104;53.590;10.004;2023-03-01T02:34:33;-0.10;92.40
240;DHT22;104;53.590;10.004;2023-03-01T02:37:07;-0.10;92.20
240;DHT22;104;53.590;10.004;2023-03-01T02:39:40;-0.10;92.10
240;DHT22;104;53.590;10.004;2023-03-01T02:42:12;-0.10;92.10
240;DHT22;104;53.590;10.004;2023-03-01T02:49:36;-0.10;91.90
240;DHT22;104;53.590;10.004;2023-03-01T02:54:58;-0.10;92.00
240;DHT22;104;53.590;10.004;2023-03-01T02:59:57;-0.20;92.10
240;DHT22;104;53.590;10.004;2023-03-01T03:05:04;-0.20;91.80
240;DHT22;104;53.590;10.004;2023-03-01T03:07:32;-0.20;91.80
240;DHT22;104;53.590;10.004;2023-03-01T03:14:56;-0.20;92.10
240;DHT22;104;53.590;10.004;2023-03-01T03:17:23;-0.30;92.20
240;DHT22;104;53.590;10.004;2023-03-01T03:37:02;-0.40;92.40
240;DHT22;104;53.590;10.004;2023-03-01T04:31:19;-0.70;93.50
240;DHT22;104;53.590;10.004;2023-03-01T04:33:48;-0.70;93.60
240;DHT22;104;53.590;10.004;2023-03-01T04:36:17;-0.70;93.70
240;DHT22;104;53.590;10.004;2023-03-01T04:38:45;-0.70;93.70
240;DHT22;104;53.590;10.004;2023-03-01T04:43:43;-0.70;93.40
240;DHT22;104;53.590;10.004;2023-03-01T04:46:12;-0.70;93.40
240;DHT22;104;53.590;10.004;2023-03-01T04:48:41;-0.70;93.40
240;DHT22;104;53.590;10.004;2023-03-01T04:53:40;-0.90;93.70
240;DHT22;104;53.590;10.004;2023-03-01T05:03:43;-0.80;94.00
240;DHT22;104;53.590;10.004;2023-03-01T05:18:33;-1.00;94.70
240;DHT22;104;53.590;10.004;2023-03-01T05:21:03;-0.90;94.60
240;DHT22;104;53.590;10.004;2023-03-01T05:23:31;-1.00;94.50
240;DHT22;104;53.590;10.004;2023-03-01T05:25:58;-1.00;94.60
240;DHT22;104;53.590;10.004;2023-03-01T05:28:26;-0.90;94.60
240;DHT22;104;53.590;10.004;2023-03-01T05:30:53;-1.00;94.60
240;DHT22;104;53.590;10.004;2023-03-01T05:33:22;-0.90;94.50
240;DHT22;104;53.590;10.004;2023-03-01T05:35:50;-1.00;94.50
240;DHT22;104;53.590;10.004;2023-03-01T05:38:19;-1.00;94.70
240;DHT22;104;53.590;10.004;2023-03-01T05:40:48;-1.00;94.60
240;DHT22;104;53.590;10.004;2023-03-01T05:43:16;-0.90;94.60
240;DHT22;104;53.590;10.004;2023-03-01T05:45:44;-0.90;94.60
240;DHT22;104;53.590;10.004;2023-03-01T05:48:11;-0.90;94.40
240;DHT22;104;53.590;10.004;2023-03-01T05:50:41;-0.80;94.00
240;DHT22;104;53.590;10.004;2023-03-01T05:53:11;-0.80;93.80
240;DHT22;104;53.590;10.004;2023-03-01T05:55:38;-0.90;93.90
240;DHT22;104;53.590;10.004;2023-03-01T06:03:02;-0.90;94.20
240;DHT22;104;53.590;10.004;2023-03-01T06:05:29;-0.90;93.90
240;DHT22;104;53.590;10.004;2023-03-01T06:18:04;-0.90;93.70
240;DHT22;104;53.590;10.004;2023-03-01T06:25:27;-0.70;93.30
240;DHT22;104;53.590;10.004;2023-03-01T06:30:24;-0.50;93.00
240;DHT22;104;53.590;10.004;2023-03-01T06:35:26;-0.40;92.30
240;DHT22;104;53.590;10.004;2023-03-01T06:37:55;-0.30;91.90
240;DHT22;104;53.590;10.004;2023-03-01T06:50:15;-0.20;91.00
240;DHT22;104;53.590;10.004;2023-03-01T06:55:10;-0.30;91.20
240;DHT22;104;53.590;10.004;2023-03-01T06:57:37;-0.30;91.20
240;DHT22;104;53.590;10.004;2023-03-01T07:00:07;-0.30;91.10
240;DHT22;104;53.590;10.004;2023-03-01T07:24:41;0.20;89.20
240;DHT22;104;53.590;10.004;2023-03-01T07:29:35;0.30;88.50
240;DHT22;104;53.590;10.004;2023-03-01T07:44:21;0.70;87.50
240;DHT22;104;53.590;10.004;2023-03-01T07:49:15;0.80;86.10
240;DHT22;104;53.590;10.004;2023-03-01T08:24:03;2.30;80.30
240;DHT22;104;53.590;10.004;2023-03-01T08:31:29;2.60;79.50
240;DHT22;104;53.590;10.004;2023-03-01T08:36:26;2.80;79.20
240;DHT22;104;53.590;10.004;2023-03-01T08:38:54;2.90;78.70
240;DHT22;104;53.590;10.004;2023-03-01T08:43:50;3.10;77.90
240;DHT22;104;53.590;10.004;2023-03-01T08:56:15;3.50;76.00
240;DHT22;104;53.590;10.004;2023-03-01T09:01:15;3.70;75.70
240;DHT22;104;53.590;10.004;2023-03-01T09:03:43;3.90;74.90
240;DHT22;104;53.590;10.004;2023-03-01T09:06:11;4.00;74.30
240;DHT22;104;53.590;10.004;2023-03-01T09:08:39;4.20;74.00
240;DHT22;104;53.590;10.004;2023-03-01T09:11:08;4.40;73.40
240;DHT22;104;53.590;10.004;2023-03-01T09:28:29;5.30;71.80
240;DHT22;104;53.590;10.004;2023-03-01T09:43:25;5.40;71.20
240;DHT22;104;53.590;10.004;2023-03-01T09:46:00;5.50;71.10
240;DHT22;104;53.590;10.004;2023-03-01T09:48:37;5.60;71.10
240;DHT22;104;53.590;10.004;2023-03-01T09:51:08;5.50;70.60
240;DHT22;104;53.590;10.004;2023-03-01T10:34:20;6.50;67.50
240;DHT22;104;53.590;10.004;2023-03-01T10:36:50;6.60;66.00
240;DHT22;104;53.590;10.004;2023-03-01T10:39:19;6.80;65.40
240;DHT22;104;53.590;10.004;2023-03-01T10:41:58;6.80;65.40
240;DHT22;104;53.590;10.004;2023-03-01T10:44:41;6.90;65.50
240;DHT22;104;53.590;10.004;2023-03-01T10:47:20;7.00;65.20
240;DHT22;104;53.590;10.004;2023-03-01T10:49:58;6.90;65.50
240;DHT22;104;53.590;10.004;2023-03-01T10:52:31;6.90;66.20
240;DHT22;104;53.590;10.004;2023-03-01T10:55:02;6.90;66.20
240;DHT22;104;53.590;10.004;2023-03-01T10:57:35;7.20;65.90
240;DHT22;104;53.590;10.004;2023-03-01T11:00:22;7.20;65.80
240;DHT22;104;53.590;10.004;2023-03-01T11:03:03;7.30;65.50
240;DHT22;104;53.590;10.004;2023-03-01T11:08:01;7.50;63.60
240;DHT22;104;53.590;10.004;2023-03-01T11:13:08;7.80;62.90
240;DHT22;104;53.590;10.004;2023-03-01T11:18:03;7.90;62.40
240;DHT22;104;53.590;10.004;2023-03-01T11:20:34;7.70;62.50
240;DHT22;104;53.590;10.004;2023-03-01T11:23:07;7.60;63.40
240;DHT22;104;53.590;10.004;2023-03-01T11:25:37;7.60;63.40
240;DHT22;104;53.590;10.004;2023-03-01T11:28:10;7.70;63.20
240;DHT22;104;53.590;10.004;2023-03-01T11:30:43;7.80;62.60
240;DHT22;104;53.590;10.004;2023-03-01T11:35:50;8.00;62.50
240;DHT22;104;53.590;10.004;2023-03-01T11:40:54;8.00;62.80
240;DHT22;104;53.590;10.004;2023-03-01T11:43:33;8.00;63.40
240;DHT22;104;53.590;10.004;2023-03-01T11:46:25;8.30;62.70
240;DHT22;104;53.590;10.004;2023-03-01T11:49:08;8.30;62.10
240;DHT22;104;53.590;10.004;2023-03-01T11:51:47;8.30;62.60
240;DHT22;104;53.590;10.004;2023-03-01T11:54:38;8.40;62.80
240;DHT22;104;53.590;10.004;2023-03-01T11:57:14;8.30;63.10
240;DHT22;104;53.590;10.004;2023-03-01T12:06:06;8.90;62.00
240;DHT22;104;53.590;10.004;2023-03-01T12:08:41;9.00;61.60
240;DHT22;104;53.590;10.004;2023-03-01T12:11:20;8.80;61.80
240;DHT22;104;53.590;10.004;2023-03-01T12:19:49;8.30;63.60
240;DHT22;104;53.590;10.004;2023-03-01T12:22:35;8.30;64.10
240;DHT22;104;53.590;10.004;2023-03-01T12:25:20;8.40;64.40
240;DHT22;104;53.590;10.004;2023-03-01T12:31:05;8.70;64.80
240;DHT22;104;53.590;10.004;2023-03-01T12:33:43;8.80;63.90
240;DHT22;104;53.590;10.004;2023-03-01T12:36:30;9.00;64.30
240;DHT22;104;53.590;10.004;2023-03-01T12:39:09;9.10;62.40
240;DHT22;104;53.590;10.004;2023-03-01T12:41:48;8.80;63.70
240;DHT22;104;53.590;10.004;2023-03-01T12:47:14;8.70;64.80
240;DHT22;104;53.590;10.004;2023-03-01T12:49:46;8.70;65.00
240;DHT22;104;53.590;10.004;2023-03-01T12:52:19;8.70;65.20
240;DHT22;104;53.590;10.004;2023-03-01T12:54:49;8.90;64.60
240;DHT22;104;53.590;10.004;2023-03-01T12:57:25;8.80;64.80
240;DHT22;104;53.590;10.004;2023-03-01T13:00:05;8.90;64.90
240;DHT22;104;53.590;10.004;2023-03-01T13:02:40;8.80;65.30
240;DHT22;104;53.590;10.004;2023-03-01T13:05:24;8.80;65.40
240;DHT22;104;53.590;10.004;2023-03-01T13:08:00;8.80;65.30
240;DHT22;104;53.590;10.004;2023-03-01T13:10:33;8.90;65.50
240;DHT22;104;53.590;10.004;2023-03-01T13:13:12;9.00;65.50
240;DHT22;104;53.590;10.004;2023-03-01T13:15:40;9.20;65.30
240;DHT22;104;53.590;10.004;2023-03-01T13:18:29;9.10;65.40
240;DHT22;104;53.590;10.004;2023-03-01T13:20:59;9.10;65.10
240;DHT22;104;53.590;10.004;2023-03-01T13:23:29;9.10;65.10
240;DHT22;104;53.590;10.004;2023-03-01T13:26:08;9.00;65.10
240;DHT22;104;53.590;10.004;2023-03-01T13:28:52;8.80;66.00
240;DHT22;104;53.590;10.004;2023-03-01T13:34:48;8.90;66.20
240;DHT22;104;53.590;10.004;2023-03-01T13:37:35;8.90;66.70
240;DHT22;104;53.590;10.004;2023-03-01T13:43:29;8.90;66.70
240;DHT22;104;53.590;10.004;2023-03-01T13:45:58;9.00;66.40
240;DHT22;104;53.590;10.004;2023-03-01T13:48:28;8.90;66.00
240;DHT22;104;53.590;10.004;2023-03-01T13:50:58;8.80;66.80
240;DHT22;104;53.590;10.004;2023-03-01T13:53:29;8.90;67.00
240;DHT22;104;53.590;10.004;2023-03-01T13:56:00;9.00;67.00
240;DHT22;104;53.590;10.004;2023-03-01T13:58:30;9.10;66.60
240;DHT22;104;53.590;10.004;2023-03-01T14:01:01;9.00;67.00
240;DHT22;104;53.590;10.004;2023-03-01T14:03:29;9.00;67.20
240;DHT22;104;53.590;10.004;2023-03-01T14:06:03;9.00;67.30
240;DHT22;104;53.590;10.004;2023-03-01T14:11:29;9.10;67.00
240;DHT22;104;53.590;10.004;2023-03-01T14:14:14;9.10;67.30
240;DHT22;104;53.590;10.004;2023-03-01T14:16:49;9.20;67.50
240;DHT22;104;53.590;10.004;2023-03-01T14:19:23;9.20;67.40
240;DHT22;104;53.590;10.004;2023-03-01T14:21:59;9.30;67.10
240;DHT22;104;53.590;10.004;2023-03-01T14:24:29;8.90;68.10
240;DHT22;104;53.590;10.004;2023-03-01T14:26:59;8.80;68.50
240;DHT22;104;53.590;10.004;2023-03-01T14:29:33;8.70;68.70
240;DHT22;104;53.590;10.004;2023-03-01T14:32:11;8.60;69.20
240;DHT22;104;53.590;10.004;2023-03-01T14:34:43;8.60;69.60
240;DHT22;104;53.590;10.004;2023-03-01T14:37:11;8.50;70.00
240;DHT22;104;53.590;10.004;2023-03-01T14:39:44;8.40;70.40
240;DHT22;104;53.590;10.004;2023-03-01T14:42:12;8.30;70.70
240;DHT22;104;53.590;10.004;2023-03-01T14:44:42;8.30;70.90
240;DHT22;104;53.590;10.004;2023-03-01T14:47:13;8.40;71.10
240;DHT22;104;53.590;10.004;2023-03-01T14:49:42;8.40;70.80
240;DHT22;104;53.590;10.004;2023-03-01T14:52:18;8.30;70.90
240;DHT22;104;53.590;10.004;2023-03-01T14:54:48;8.30;71.30
240;DHT22;104;53.590;10.004;2023-03-01T14:57:18;8.30;71.70
240;DHT22;104;53.590;10.004;2023-03-01T14:59:47;8.20;71.70
240;DHT22;104;53.590;10.004;2023-03-01T15:02:19;8.20;71.80
240;DHT22;104;53.590;10.004;2023-03-01T15:07:17;8.00;72.40
240;DHT22;104;53.590;10.004;2023-03-01T15:09:45;8.00;72.90
240;DHT22;104;53.590;10.004;2023-03-01T15:12:40;8.00;72.90
240;DHT22;104;53.590;10.004;2023-03-01T15:17:52;7.90;73.00
240;DHT22;104;53.590;10.004;2023-03-01T15:20:25;7.90;73.30
240;DHT22;104;53.590;10.004;2023-03-01T15:22:53;7.90;73.30
240;DHT22;104;53.590;10.004;2023-03-01T15:25:23;7.80;73.60
240;DHT22;104;53.590;10.004;2023-03-01T15:27:52;7.80;73.70
240;DHT22;104;53.590;10.004;2023-03-01T15:30:22;7.70;73.70
240;DHT22;104;53.590;10.004;2023-03-01T15:33:19;7.70;73.90
240;DHT22;104;53.590;10.004;2023-03-01T15:35:48;7.50;74.70
240;DHT22;104;53.590;10.004;2023-03-01T15:38:25;7.50;74.90
240;DHT22;104;53.590;10.004;2023-03-01T15:40:54;7.40;74.90
240;DHT22;104;53.590;10.004;2023-03-01T15:46:05;7.30;75.20
240;DHT22;104;53.590;10.004;2023-03-01T15:48:34;7.20;75.40
240;DHT22;104;53.590;10.004;2023-03-01T16:00:51;6.90;76.40
240;DHT22;104;53.590;10.004;2023-03-01T16:05:51;6.90;76.80
240;DHT22;104;53.590;10.004;2023-03-01T16:08:19;6.80;76.80
240;DHT22;104;53.590;10.004;2023-03-01T16:13:15;6.70;77.20
240;DHT22;104;53.590;10.004;2023-03-01T16:20:37;6.60;77.50
240;DHT22;104;53.590;10.004;2023-03-01T16:23:08;6.50;77.60
240;DHT22;104;53.590;10.004;2023-03-01T16:25:35;6.50;77.80
240;DHT22;104;53.590;10.004;2023-03-01T16:28:03;6.40;78.10
240;DHT22;104;53.590;10.004;2023-03-01T16:37:59;6.30;78.50
240;DHT22;104;53.590;10.004;2023-03-01T16:40:29;6.10;78.70
240;DHT22;104;53.590;10.004;2023-03-01T16:42:57;6.10;78.80
240;DHT22;104;53.590;10.004;2023-03-01T16:45:26;6.10;78.80
240;DHT22;104;53.590;10.004;2023-03-01T17:47:43;5.30;81.60
240;DHT22;104;53.590;10.004;2023-03-01T18:32:25;4.90;85.10
240;DHT22;104;53.590;10.004;2023-03-01T18:34:52;5.00;85.60
240;DHT22;104;53.590;10.004;2023-03-01T20:11:40;4.00;89.20
240;DHT22;104;53.590;10.004;2023-03-01T20:19:05;4.00;89.30
240;DHT22;104;53.590;10.004;2023-03-01T21:01:13;3.60;90.50
240;DHT22;104;53.590;10.004;2023-03-01T21:18:30;3.50;91.10
240;DHT22;104;53.590;10.004;2023-03-01T21:31:05;3.40;91.80
240;DHT22;104;53.590;10.004;2023-03-01T21:36:01;3.30;92.10
240;DHT22;104;53.590;10.004;2023-03-01T21:43:24;3.20;92.40
240;DHT22;104;53.590;10.004;2023-03-01T21:55:49;3.10;92.90
240;DHT22;104;53.590;10.004;2023-03-01T21:58:16;3.10;92.90
240;DHT22;104;53.590;10.004;2023-03-01T22:10:38;3.00;93.40
240;DHT22;104;53.590;10.004;2023-03-01T22:20:37;2.90;93.80
240;DHT22;104;53.590;10.004;2023-03-01T22:50:11;2.70;94.90
240;DHT22;104;53.590;10.004;2023-03-01T23:19:50;2.60;95.70
240;DHT22;104;53.590;10.004;2023-03-01T23:22:18;2.60;95.70
240;DHT22;104;53.590;10.004;2023-03-01T23:24:45;2.50;95.80
240;DHT22;104;53.590;10.004;2023-03-01T23:27:14;2.50;95.90
240;DHT22;104;53.590;10.004;2023-03-01T23:34:39;2.50;95.90
240;DHT22;104;53.590;10.004;2023-03-01T23:37:08;2.50;95.90
240;DHT22;104;53.590;10.004;2023-03-01T23:39:36;2.50;96.10
240;DHT22;104;53.590;10.004;2023-03-01T23:42:04;2.50;96.10
240;DHT22;104;53.590;10.004;2023-03-01T23:44:31;2.50;96.00
240;DHT22;104;53.590;10.004;2023-03-01T23:46:59;2.50;96.00
240;DHT22;104;53.590;10.004;2023-03-01T23:49:28;2.50;96.10
240;DHT22;104;53.590;10.004;2023-03-01T23:54:23;2.50;96.10
240;DHT22;104;53.590;10.004;2023-03-01T23:56:50;2.40;96.20
240;DHT22;104;53.590;10.004;2023-03-01T23:59:19;2.40;96.10
